sensor_id;sensor_type;location;lat;lon;timestamp;P1;durP1;ratioP1;P2;durP2;ratioP2
3099;SDS011;1560;52.746;13.474;2023-06-14T00:00:16;4.83;;;3.07;;
3099;SDS011;1560;52.746;13.474;2023-06-14T00:05:22;4.17;;;2.90;;
3099;SDS011;1560;52.746;13.474;2023-06-14T00:07:51;3.00;;;2.30;;
3099;SDS011;1560;52.746;13.474;2023-06-14T00:10:20;2.70;;;2.20;;
3099;SDS011;1560;52.746;13.474;2023-06-14T00:15:25;3.37;;;2.47;;
3099;SDS011;1560;52.746;13.474;2023-06-14T00:17:54;3.20;;;2.27;;
3099;SDS011;1560;52.746;13.474;2023-06-14T00:20:23;3.37;;;2.80;;
3099;SDS011;1560;52.746;13.474;2023-06-14T00:25:28;3.40;;;2.20;;
3099;SDS011;1560;52.746;13.474;2023-06-14T00:27:57;4.63;;;2.80;;
3099;SDS011;1560;52.746;13.474;2023-06-14T00:30:26;3.57;;;2.70;;
3099;SDS011;1560;52.746;13.474;2023-06-14T00:32:56;4.07;;;2.60;;
3099;SDS011;1560;52.746;13.474;2023-06-14T00:35:25;6.73;;;3.40;;
3099;SDS011;1560;52.746;13.474;2023-06-14T00:37:55;3.87;;;2.67;;
3099;SDS011;1560;52.746;13.474;2023-06-14T00:40:23;3.07;;;2.40;;
3099;SDS011;1560;52.746;13.474;2023-06-14T00:42:52;2.97;;;2.67;;
3099;SDS011;1560;52.746;13.474;2023-06-14T00:45:21;3.50;;;2.20;;
3099;SDS011;1560;52.746;13.474;2023-06-14T00:50:26;6.20;;;3.17;;
3099;SDS011;1560;52.746;13.474;2023-06-14T00:52:58;5.33;;;3.50;;
3099;SDS011;1560;52.746;13.474;2023-06-14T00:55:28;4.57;;;2.90;;
3099;SDS011;1560;52.746;13.474;2023-06-14T01:00:35;4.23;;;2.73;;
3099;SDS011;1560;52.746;13.474;2023-06-14T01:03:04;5.80;;;3.20;;
3099;SDS011;1560;52.746;13.474;2023-06-14T01:05:34;3.80;;;3.07;;
3099;SDS011;1560;52.746;13.474;2023-06-14T01:08:09;5.20;;;2.93;;
3099;SDS011;1560;52.746;13.474;2023-06-14T01:10:45;4.57;;;2.90;;
3099;SDS011;1560;52.746;13.474;2023-06-14T01:13:19;3.50;;;2.73;;
3099;SDS011;1560;52.746;13.474;2023-06-14T01:18:28;7.50;;;3.00;;
3099;SDS011;1560;52.746;13.474;2023-06-14T01:20:59;3.37;;;3.00;;
3099;SDS011;1560;52.746;13.474;2023-06-14T01:26:07;4.70;;;3.40;;
3099;SDS011;1560;52.746;13.474;2023-06-14T01:31:12;4.13;;;2.60;;
3099;SDS011;1560;52.746;13.474;2023-06-14T01:33:43;7.10;;;3.30;;
3099;SDS011;1560;52.746;13.474;2023-06-14T01:36:13;4.33;;;3.33;;
3099;SDS011;1560;52.746;13.474;2023-06-14T01:41:19;4.10;;;3.10;;
3099;SDS011;1560;52.746;13.474;2023-06-14T01:43:52;5.73;;;3.57;;
3099;SDS011;1560;52.746;13.474;2023-06-14T01:46:30;3.10;;;2.70;;
3099;SDS011;1560;52.746;13.474;2023-06-14T01:49:00;6.13;;;4.23;;
3099;SDS011;1560;52.746;13.474;2023-06-14T01:51:29;4.10;;;2.77;;
3099;SDS011;1560;52.746;13.474;2023-06-14T01:53:58;4.53;;;3.20;;
3099;SDS011;1560;52.746;13.474;2023-06-14T01:56:26;5.03;;;3.50;;
3099;SDS011;1560;52.746;13.474;2023-06-14T02:01:32;3.83;;;3.40;;
3099;SDS011;1560;52.746;13.474;2023-06-14T02:04:01;5.73;;;3.70;;
3099;SDS011;1560;52.746;13.474;2023-06-14T02:06:30;4.17;;;3.17;;
3099;SDS011;1560;52.746;13.474;2023-06-14T02:09:00;5.30;;;3.50;;
3099;SDS011;1560;52.746;13.474;2023-06-14T02:11:29;5.43;;;3.27;;
3099;SDS011;1560;52.746;13.474;2023-06-14T02:16:34;5.80;;;3.70;;
3099;SDS011;1560;52.746;13.474;2023-06-14T02:21:41;4.40;;;3.77;;
3099;SDS011;1560;52.746;13.474;2023-06-14T02:24:10;5.50;;;3.93;;
3099;SDS011;1560;52.746;13.474;2023-06-14T02:26:39;5.27;;;3.53;;
3099;SDS011;1560;52.746;13.474;2023-06-14T02:29:08;5.03;;;3.67;;
3099;SDS011;1560;52.746;13.474;2023-06-14T02:31:40;5.27;;;3.60;;
3099;SDS011;1560;52.746;13.474;2023-06-14T02:34:08;4.23;;;3.60;;
3099;SDS011;1560;52.746;13.474;2023-06-14T02:36:37;5.93;;;3.50;;
3099;SDS011;1560;52.746;13.474;2023-06-14T02:39:07;7.17;;;4.50;;
3099;SDS011;1560;52.746;13.474;2023-06-14T02:41:37;4.77;;;3.70;;
3099;SDS011;1560;52.746;13.474;2023-06-14T02:44:06;10.13;;;3.60;;
3099;SDS011;1560;52.746;13.474;2023-06-14T02:46:35;9.93;;;5.20;;
3099;SDS011;1560;52.746;13.474;2023-06-14T02:51:40;5.93;;;4.37;;
3099;SDS011;1560;52.746;13.474;2023-06-14T02:54:09;6.30;;;4.30;;
3099;SDS011;1560;52.746;13.474;2023-06-14T02:56:37;4.30;;;3.73;;
3099;SDS011;1560;52.746;13.474;2023-06-14T03:01:43;8.23;;;4.37;;
3099;SDS011;1560;52.746;13.474;2023-06-14T03:04:12;4.40;;;3.73;;
3099;SDS011;1560;52.746;13.474;2023-06-14T03:06:41;4.33;;;3.43;;
3099;SDS011;1560;52.746;13.474;2023-06-14T03:09:11;7.03;;;5.20;;
3099;SDS011;1560;52.746;13.474;2023-06-14T03:11:41;4.03;;;3.50;;
3099;SDS011;1560;52.746;13.474;2023-06-14T03:14:10;6.53;;;3.93;;
3099;SDS011;1560;52.746;13.474;2023-06-14T03:16:39;7.37;;;4.73;;
3099;SDS011;1560;52.746;13.474;2023-06-14T03:21:45;7.30;;;5.27;;
3099;SDS011;1560;52.746;13.474;2023-06-14T03:24:14;5.60;;;4.00;;
3099;SDS011;1560;52.746;13.474;2023-06-14T03:26:43;8.43;;;4.60;;
3099;SDS011;1560;52.746;13.474;2023-06-14T03:29:12;6.30;;;4.00;;
3099;SDS011;1560;52.746;13.474;2023-06-14T03:34:20;7.77;;;4.00;;
3099;SDS011;1560;52.746;13.474;2023-06-14T03:36:48;6.83;;;4.30;;
3099;SDS011;1560;52.746;13.474;2023-06-14T03:39:25;6.53;;;4.17;;
3099;SDS011;1560;52.746;13.474;2023-06-14T03:41:54;6.43;;;4.40;;
3099;SDS011;1560;52.746;13.474;2023-06-14T03:44:23;9.83;;;4.33;;
3099;SDS011;1560;52.746;13.474;2023-06-14T03:46:53;5.90;;;4.43;;
3099;SDS011;1560;52.746;13.474;2023-06-14T03:49:22;5.47;;;4.47;;
3099;SDS011;1560;52.746;13.474;2023-06-14T03:51:51;6.83;;;4.93;;
3099;SDS011;1560;52.746;13.474;2023-06-14T03:54:20;5.10;;;4.17;;
3099;SDS011;1560;52.746;13.474;2023-06-14T03:56:49;5.10;;;4.57;;
3099;SDS011;1560;52.746;13.474;2023-06-14T04:01:54;5.60;;;3.80;;
3099;SDS011;1560;52.746;13.474;2023-06-14T04:04:23;6.00;;;4.23;;
3099;SDS011;1560;52.746;13.474;2023-06-14T04:06:54;6.13;;;4.17;;
3099;SDS011;1560;52.746;13.474;2023-06-14T04:09:24;7.70;;;4.67;;
3099;SDS011;1560;52.746;13.474;2023-06-14T04:11:53;5.40;;;4.00;;
3099;SDS011;1560;52.746;13.474;2023-06-14T04:14:22;5.70;;;4.03;;
3099;SDS011;1560;52.746;13.474;2023-06-14T04:16:51;5.40;;;4.27;;
3099;SDS011;1560;52.746;13.474;2023-06-14T04:19:20;6.60;;;3.87;;
3099;SDS011;1560;52.746;13.474;2023-06-14T04:21:49;5.67;;;3.90;;
3099;SDS011;1560;52.746;13.474;2023-06-14T04:24:17;5.93;;;5.03;;
3099;SDS011;1560;52.746;13.474;2023-06-14T04:26:46;4.77;;;3.90;;
3099;SDS011;1560;52.746;13.474;2023-06-14T04:29:18;7.07;;;5.47;;
3099;SDS011;1560;52.746;13.474;2023-06-14T04:31:47;6.00;;;5.20;;
3099;SDS011;1560;52.746;13.474;2023-06-14T04:34:17;6.83;;;4.90;;
3099;SDS011;1560;52.746;13.474;2023-06-14T04:39:23;7.30;;;4.43;;
3099;SDS011;1560;52.746;13.474;2023-06-14T04:41:53;5.83;;;4.90;;
3099;SDS011;1560;52.746;13.474;2023-06-14T04:44:23;5.60;;;3.80;;
3099;SDS011;1560;52.746;13.474;2023-06-14T04:46:54;5.40;;;4.10;;
3099;SDS011;1560;52.746;13.474;2023-06-14T04:49:25;7.40;;;4.57;;
3099;SDS011;1560;52.746;13.474;2023-06-14T04:54:32;7.23;;;4.90;;
3099;SDS011;1560;52.746;13.474;2023-06-14T04:57:02;8.53;;;5.13;;
3099;SDS011;1560;52.746;13.474;2023-06-14T04:59:41;8.53;;;5.33;;
3099;SDS011;1560;52.746;13.474;2023-06-14T05:04:47;6.07;;;4.80;;
3099;SDS011;1560;52.746;13.474;2023-06-14T05:07:16;4.20;;;3.67;;
3099;SDS011;1560;52.746;13.474;2023-06-14T05:09:46;6.37;;;5.20;;
3099;SDS011;1560;52.746;13.474;2023-06-14T05:12:15;6.53;;;5.40;;
3099;SDS011;1560;52.746;13.474;2023-06-14T05:14:45;6.70;;;4.67;;
3099;SDS011;1560;52.746;13.474;2023-06-14T05:19:50;5.83;;;5.10;;
3099;SDS011;1560;52.746;13.474;2023-06-14T05:22:19;5.30;;;4.30;;
3099;SDS011;1560;52.746;13.474;2023-06-14T05:24:47;5.50;;;4.93;;
3099;SDS011;1560;52.746;13.474;2023-06-14T05:27:17;6.23;;;5.37;;
3099;SDS011;1560;52.746;13.474;2023-06-14T05:29:46;6.37;;;4.70;;
3099;SDS011;1560;52.746;13.474;2023-06-14T05:34:50;13.37;;;5.47;;
3099;SDS011;1560;52.746;13.474;2023-06-14T05:37:19;6.97;;;5.10;;
3099;SDS011;1560;52.746;13.474;2023-06-14T05:39:48;11.07;;;5.73;;
3099;SDS011;1560;52.746;13.474;2023-06-14T05:44:53;6.07;;;5.40;;
3099;SDS011;1560;52.746;13.474;2023-06-14T05:49:58;8.47;;;5.83;;
3099;SDS011;1560;52.746;13.474;2023-06-14T05:52:27;8.10;;;6.07;;
3099;SDS011;1560;52.746;13.474;2023-06-14T05:54:57;10.53;;;6.17;;
3099;SDS011;1560;52.746;13.474;2023-06-14T05:57:27;11.20;;;7.03;;
3099;SDS011;1560;52.746;13.474;2023-06-14T05:59:56;7.20;;;6.13;;
3099;SDS011;1560;52.746;13.474;2023-06-14T06:02:33;7.90;;;6.30;;
3099;SDS011;1560;52.746;13.474;2023-06-14T06:05:02;8.63;;;6.30;;
3099;SDS011;1560;52.746;13.474;2023-06-14T06:07:39;8.07;;;6.07;;
3099;SDS011;1560;52.746;13.474;2023-06-14T06:12:46;6.70;;;5.70;;
3099;SDS011;1560;52.746;13.474;2023-06-14T06:15:17;6.60;;;5.53;;
3099;SDS011;1560;52.746;13.474;2023-06-14T06:17:46;9.40;;;6.10;;
3099;SDS011;1560;52.746;13.474;2023-06-14T06:20:15;10.60;;;6.77;;
3099;SDS011;1560;52.746;13.474;2023-06-14T06:22:44;7.37;;;6.57;;
3099;SDS011;1560;52.746;13.474;2023-06-14T06:25:13;15.90;;;6.80;;
3099;SDS011;1560;52.746;13.474;2023-06-14T06:27:43;8.17;;;6.47;;
3099;SDS011;1560;52.746;13.474;2023-06-14T06:30:13;8.00;;;6.67;;
3099;SDS011;1560;52.746;13.474;2023-06-14T06:32:42;7.70;;;6.00;;
3099;SDS011;1560;52.746;13.474;2023-06-14T06:37:47;8.80;;;6.80;;
3099;SDS011;1560;52.746;13.474;2023-06-14T06:40:16;8.10;;;6.27;;
3099;SDS011;1560;52.746;13.474;2023-06-14T06:42:44;9.07;;;6.13;;
3099;SDS011;1560;52.746;13.474;2023-06-14T06:45:13;8.80;;;6.43;;
3099;SDS011;1560;52.746;13.474;2023-06-14T06:47:42;6.37;;;5.77;;
3099;SDS011;1560;52.746;13.474;2023-06-14T06:52:47;6.77;;;5.70;;
3099;SDS011;1560;52.746;13.474;2023-06-14T06:55:16;6.33;;;5.70;;
3099;SDS011;1560;52.746;13.474;2023-06-14T06:57:45;8.60;;;5.97;;
3099;SDS011;1560;52.746;13.474;2023-06-14T07:00:14;7.90;;;5.93;;
3099;SDS011;1560;52.746;13.474;2023-06-14T07:05:20;6.67;;;5.97;;
3099;SDS011;1560;52.746;13.474;2023-06-14T07:07:49;9.33;;;5.73;;
3099;SDS011;1560;52.746;13.474;2023-06-14T07:12:54;9.43;;;6.80;;
3099;SDS011;1560;52.746;13.474;2023-06-14T07:15:23;6.87;;;6.07;;
3099;SDS011;1560;52.746;13.474;2023-06-14T07:17:52;11.60;;;5.90;;
3099;SDS011;1560;52.746;13.474;2023-06-14T07:22:58;6.73;;;5.70;;
3099;SDS011;1560;52.746;13.474;2023-06-14T07:25:27;12.80;;;6.53;;
3099;SDS011;1560;52.746;13.474;2023-06-14T07:27:56;7.40;;;5.70;;
3099;SDS011;1560;52.746;13.474;2023-06-14T07:30:25;8.00;;;6.17;;
3099;SDS011;1560;52.746;13.474;2023-06-14T07:33:03;9.83;;;6.47;;
3099;SDS011;1560;52.746;13.474;2023-06-14T07:35:32;5.77;;;5.13;;
3099;SDS011;1560;52.746;13.474;2023-06-14T07:38:00;6.90;;;5.27;;
3099;SDS011;1560;52.746;13.474;2023-06-14T07:40:29;8.50;;;5.73;;
3099;SDS011;1560;52.746;13.474;2023-06-14T07:42:58;5.13;;;4.63;;
3099;SDS011;1560;52.746;13.474;2023-06-14T07:45:28;7.90;;;5.17;;
3099;SDS011;1560;52.746;13.474;2023-06-14T07:47:57;11.83;;;4.60;;
3099;SDS011;1560;52.746;13.474;2023-06-14T07:50:34;7.63;;;5.70;;
3099;SDS011;1560;52.746;13.474;2023-06-14T07:53:03;9.67;;;6.93;;
3099;SDS011;1560;52.746;13.474;2023-06-14T07:55:32;8.50;;;7.60;;
3099;SDS011;1560;52.746;13.474;2023-06-14T07:58:03;7.80;;;5.87;;
3099;SDS011;1560;52.746;13.474;2023-06-14T08:00:32;8.23;;;5.50;;
3099;SDS011;1560;52.746;13.474;2023-06-14T08:05:37;5.90;;;4.53;;
3099;SDS011;1560;52.746;13.474;2023-06-14T08:08:06;6.40;;;4.60;;
3099;SDS011;1560;52.746;13.474;2023-06-14T08:10:34;8.13;;;5.00;;
3099;SDS011;1560;52.746;13.474;2023-06-14T08:13:03;8.60;;;5.90;;
3099;SDS011;1560;52.746;13.474;2023-06-14T08:15:32;8.13;;;5.40;;
3099;SDS011;1560;52.746;13.474;2023-06-14T08:18:01;12.20;;;8.23;;
3099;SDS011;1560;52.746;13.474;2023-06-14T08:20:30;11.13;;;6.93;;
3099;SDS011;1560;52.746;13.474;2023-06-14T08:23:01;9.10;;;6.00;;
3099;SDS011;1560;52.746;13.474;2023-06-14T08:25:31;6.33;;;4.70;;
3099;SDS011;1560;52.746;13.474;2023-06-14T08:30:35;7.33;;;5.90;;
3099;SDS011;1560;52.746;13.474;2023-06-14T08:33:04;7.73;;;6.13;;
3099;SDS011;1560;52.746;13.474;2023-06-14T08:35:33;11.53;;;6.10;;
3099;SDS011;1560;52.746;13.474;2023-06-14T08:38:03;6.77;;;5.47;;
3099;SDS011;1560;52.746;13.474;2023-06-14T08:40:32;8.50;;;5.00;;
3099;SDS011;1560;52.746;13.474;2023-06-14T08:45:40;7.10;;;5.37;;
3099;SDS011;1560;52.746;13.474;2023-06-14T08:48:09;5.80;;;4.63;;
3099;SDS011;1560;52.746;13.474;2023-06-14T08:50:40;6.93;;;5.47;;
3099;SDS011;1560;52.746;13.474;2023-06-14T08:55:47;8.90;;;6.20;;
3099;SDS011;1560;52.746;13.474;2023-06-14T08:58:16;7.67;;;5.33;;
3099;SDS011;1560;52.746;13.474;2023-06-14T09:00:54;8.83;;;5.53;;
3099;SDS011;1560;52.746;13.474;2023-06-14T09:03:23;6.47;;;4.40;;
3099;SDS011;1560;52.746;13.474;2023-06-14T09:08:30;8.97;;;5.13;;
3099;SDS011;1560;52.746;13.474;2023-06-14T09:13:37;9.60;;;5.93;;
3099;SDS011;1560;52.746;13.474;2023-06-14T09:16:06;10.17;;;5.97;;
3099;SDS011;1560;52.746;13.474;2023-06-14T09:18:35;11.30;;;5.60;;
3099;SDS011;1560;52.746;13.474;2023-06-14T09:21:06;10.50;;;5.80;;
3099;SDS011;1560;52.746;13.474;2023-06-14T09:23:36;12.10;;;6.40;;
3099;SDS011;1560;52.746;13.474;2023-06-14T09:28:45;9.37;;;6.20;;
3099;SDS011;1560;52.746;13.474;2023-06-14T09:31:15;9.73;;;5.17;;
3099;SDS011;1560;52.746;13.474;2023-06-14T09:33:45;10.60;;;5.77;;
3099;SDS011;1560;52.746;13.474;2023-06-14T09:36:15;9.10;;;5.60;;
3099;SDS011;1560;52.746;13.474;2023-06-14T09:38:52;6.97;;;5.97;;
3099;SDS011;1560;52.746;13.474;2023-06-14T09:43:58;10.17;;;5.97;;
3099;SDS011;1560;52.746;13.474;2023-06-14T09:46:29;5.60;;;4.77;;
3099;SDS011;1560;52.746;13.474;2023-06-14T09:48:58;6.30;;;5.00;;
3099;SDS011;1560;52.746;13.474;2023-06-14T09:51:29;5.80;;;5.17;;
3099;SDS011;1560;52.746;13.474;2023-06-14T09:54:06;9.53;;;5.50;;
3099;SDS011;1560;52.746;13.474;2023-06-14T09:56:57;7.40;;;5.37;;
3099;SDS011;1560;52.746;13.474;2023-06-14T10:02:07;6.63;;;5.20;;
3099;SDS011;1560;52.746;13.474;2023-06-14T10:07:33;5.73;;;4.70;;
3099;SDS011;1560;52.746;13.474;2023-06-14T10:10:05;7.80;;;6.00;;
3099;SDS011;1560;52.746;13.474;2023-06-14T10:12:36;7.63;;;5.03;;
3099;SDS011;1560;52.746;13.474;2023-06-14T10:15:16;6.97;;;5.13;;
3099;SDS011;1560;52.746;13.474;2023-06-14T10:17:49;6.80;;;4.23;;
3099;SDS011;1560;52.746;13.474;2023-06-14T10:20:24;7.57;;;5.00;;
3099;SDS011;1560;52.746;13.474;2023-06-14T10:22:58;7.93;;;5.03;;
3099;SDS011;1560;52.746;13.474;2023-06-14T10:28:14;5.40;;;4.30;;
3099;SDS011;1560;52.746;13.474;2023-06-14T10:33:36;5.00;;;4.43;;
3099;SDS011;1560;52.746;13.474;2023-06-14T10:36:09;5.40;;;4.23;;
3099;SDS011;1560;52.746;13.474;2023-06-14T10:38:40;7.10;;;5.17;;
3099;SDS011;1560;52.746;13.474;2023-06-14T10:43:47;10.33;;;4.60;;
3099;SDS011;1560;52.746;13.474;2023-06-14T10:46:16;5.43;;;4.40;;
3099;SDS011;1560;52.746;13.474;2023-06-14T10:48:47;9.63;;;4.60;;
3099;SDS011;1560;52.746;13.474;2023-06-14T10:53:53;7.27;;;4.47;;
3099;SDS011;1560;52.746;13.474;2023-06-14T10:56:28;8.70;;;4.27;;
3099;SDS011;1560;52.746;13.474;2023-06-14T11:01:36;8.80;;;4.70;;
3099;SDS011;1560;52.746;13.474;2023-06-14T11:04:10;6.73;;;4.70;;
3099;SDS011;1560;52.746;13.474;2023-06-14T11:06:48;7.60;;;4.60;;
3099;SDS011;1560;52.746;13.474;2023-06-14T11:12:09;5.80;;;4.00;;
3099;SDS011;1560;52.746;13.474;2023-06-14T11:14:39;7.37;;;4.50;;
3099;SDS011;1560;52.746;13.474;2023-06-14T11:17:08;8.03;;;4.70;;
3099;SDS011;1560;52.746;13.474;2023-06-14T11:19:39;7.50;;;4.40;;
3099;SDS011;1560;52.746;13.474;2023-06-14T11:22:08;5.27;;;4.17;;
3099;SDS011;1560;52.746;13.474;2023-06-14T11:24:37;6.33;;;3.47;;
3099;SDS011;1560;52.746;13.474;2023-06-14T11:27:06;7.20;;;4.53;;
3099;SDS011;1560;52.746;13.474;2023-06-14T11:29:35;8.73;;;4.43;;
3099;SDS011;1560;52.746;13.474;2023-06-14T11:32:07;5.50;;;4.37;;
3099;SDS011;1560;52.746;13.474;2023-06-14T11:34:38;6.87;;;4.03;;
3099;SDS011;1560;52.746;13.474;2023-06-14T11:39:43;5.40;;;4.20;;
3099;SDS011;1560;52.746;13.474;2023-06-14T11:42:14;5.73;;;4.37;;
3099;SDS011;1560;52.746;13.474;2023-06-14T11:44:46;6.03;;;3.87;;
3099;SDS011;1560;52.746;13.474;2023-06-14T11:47:14;8.97;;;5.20;;
3099;SDS011;1560;52.746;13.474;2023-06-14T11:49:43;6.30;;;3.80;;
3099;SDS011;1560;52.746;13.474;2023-06-14T11:52:13;4.73;;;3.73;;
3099;SDS011;1560;52.746;13.474;2023-06-14T11:54:42;9.20;;;3.83;;
3099;SDS011;1560;52.746;13.474;2023-06-14T11:57:11;5.70;;;4.43;;
3099;SDS011;1560;52.746;13.474;2023-06-14T11:59:39;5.70;;;4.93;;
3099;SDS011;1560;52.746;13.474;2023-06-14T12:02:13;4.80;;;4.30;;
3099;SDS011;1560;52.746;13.474;2023-06-14T12:04:42;5.33;;;3.50;;
3099;SDS011;1560;52.746;13.474;2023-06-14T12:10:04;8.10;;;4.17;;
3099;SDS011;1560;52.746;13.474;2023-06-14T12:15:13;5.83;;;3.90;;
3099;SDS011;1560;52.746;13.474;2023-06-14T12:17:43;6.27;;;4.20;;
3099;SDS011;1560;52.746;13.474;2023-06-14T12:22:52;5.93;;;3.97;;
3099;SDS011;1560;52.746;13.474;2023-06-14T12:25:31;8.37;;;4.10;;
3099;SDS011;1560;52.746;13.474;2023-06-14T12:28:08;4.73;;;3.40;;
3099;SDS011;1560;52.746;13.474;2023-06-14T12:33:13;4.93;;;3.83;;
3099;SDS011;1560;52.746;13.474;2023-06-14T12:35:42;5.90;;;3.70;;
3099;SDS011;1560;52.746;13.474;2023-06-14T12:38:20;6.83;;;3.80;;
3099;SDS011;1560;52.746;13.474;2023-06-14T12:40:49;7.90;;;4.50;;
3099;SDS011;1560;52.746;13.474;2023-06-14T12:43:18;4.77;;;3.93;;
3099;SDS011;1560;52.746;13.474;2023-06-14T12:45:47;7.50;;;4.00;;
3099;SDS011;1560;52.746;13.474;2023-06-14T12:48:16;6.10;;;4.10;;
3099;SDS011;1560;52.746;13.474;2023-06-14T12:50:54;5.80;;;3.87;;
3099;SDS011;1560;52.746;13.474;2023-06-14T12:53:23;5.60;;;3.97;;
3099;SDS011;1560;52.746;13.474;2023-06-14T12:55:52;5.40;;;3.80;;
3099;SDS011;1560;52.746;13.474;2023-06-14T12:58:21;4.07;;;3.67;;
3099;SDS011;1560;52.746;13.474;2023-06-14T13:00:58;4.00;;;3.60;;
3099;SDS011;1560;52.746;13.474;2023-06-14T13:03:27;8.40;;;3.63;;
3099;SDS011;1560;52.746;13.474;2023-06-14T13:05:56;5.13;;;4.10;;
3099;SDS011;1560;52.746;13.474;2023-06-14T13:08:34;5.10;;;3.70;;
3099;SDS011;1560;52.746;13.474;2023-06-14T13:13:39;5.07;;;3.97;;
3099;SDS011;1560;52.746;13.474;2023-06-14T13:16:08;5.80;;;4.53;;
3099;SDS011;1560;52.746;13.474;2023-06-14T13:21:13;6.40;;;5.07;;
3099;SDS011;1560;52.746;13.474;2023-06-14T13:23:42;4.63;;;3.63;;
3099;SDS011;1560;52.746;13.474;2023-06-14T13:26:11;4.53;;;3.77;;
3099;SDS011;1560;52.746;13.474;2023-06-14T13:31:16;5.80;;;3.60;;
3099;SDS011;1560;52.746;13.474;2023-06-14T13:33:45;6.63;;;4.03;;
3099;SDS011;1560;52.746;13.474;2023-06-14T13:36:14;5.73;;;3.53;;
3099;SDS011;1560;52.746;13.474;2023-06-14T13:38:43;4.87;;;4.10;;
3099;SDS011;1560;52.746;13.474;2023-06-14T13:41:12;6.30;;;3.90;;
3099;SDS011;1560;52.746;13.474;2023-06-14T13:46:17;6.50;;;4.47;;
3099;SDS011;1560;52.746;13.474;2023-06-14T13:48:46;4.47;;;4.03;;
3099;SDS011;1560;52.746;13.474;2023-06-14T13:51:14;5.60;;;3.93;;
3099;SDS011;1560;52.746;13.474;2023-06-14T13:53:46;5.43;;;3.53;;
3099;SDS011;1560;52.746;13.474;2023-06-14T13:56:15;5.10;;;3.80;;
3099;SDS011;1560;52.746;13.474;2023-06-14T14:01:21;5.90;;;4.50;;
3099;SDS011;1560;52.746;13.474;2023-06-14T14:03:52;8.00;;;3.70;;
3099;SDS011;1560;52.746;13.474;2023-06-14T14:06:20;4.40;;;3.63;;
3099;SDS011;1560;52.746;13.474;2023-06-14T14:08:49;4.40;;;3.73;;
3099;SDS011;1560;52.746;13.474;2023-06-14T14:11:19;6.07;;;3.87;;
3099;SDS011;1560;52.746;13.474;2023-06-14T14:13:48;7.03;;;4.10;;
3099;SDS011;1560;52.746;13.474;2023-06-14T14:16:17;5.10;;;4.50;;
3099;SDS011;1560;52.746;13.474;2023-06-14T14:21:22;8.57;;;3.20;;
3099;SDS011;1560;52.746;13.474;2023-06-14T14:23:51;5.50;;;3.80;;
3099;SDS011;1560;52.746;13.474;2023-06-14T14:26:20;6.17;;;3.53;;
3099;SDS011;1560;52.746;13.474;2023-06-14T14:28:49;6.50;;;3.40;;
3099;SDS011;1560;52.746;13.474;2023-06-14T14:31:19;5.97;;;3.63;;
3099;SDS011;1560;52.746;13.474;2023-06-14T14:33:47;5.93;;;3.60;;
3099;SDS011;1560;52.746;13.474;2023-06-14T14:36:16;6.93;;;4.10;;
3099;SDS011;1560;52.746;13.474;2023-06-14T14:41:21;7.93;;;5.10;;
3099;SDS011;1560;52.746;13.474;2023-06-14T14:43:50;17.57;;;5.60;;
3099;SDS011;1560;52.746;13.474;2023-06-14T14:46:19;7.17;;;4.80;;
3099;SDS011;1560;52.746;13.474;2023-06-14T14:48:48;5.57;;;3.53;;
3099;SDS011;1560;52.746;13.474;2023-06-14T14:53:53;6.10;;;4.30;;
3099;SDS011;1560;52.746;13.474;2023-06-14T14:56:22;4.03;;;3.60;;
3099;SDS011;1560;52.746;13.474;2023-06-14T14:58:52;7.03;;;4.20;;
3099;SDS011;1560;52.746;13.474;2023-06-14T15:01:21;5.20;;;3.60;;
3099;SDS011;1560;52.746;13.474;2023-06-14T15:03:50;6.57;;;4.37;;
3099;SDS011;1560;52.746;13.474;2023-06-14T15:06:18;7.10;;;3.87;;
3099;SDS011;1560;52.746;13.474;2023-06-14T15:11:23;5.00;;;3.77;;
3099;SDS011;1560;52.746;13.474;2023-06-14T15:13:53;5.43;;;4.13;;
3099;SDS011;1560;52.746;13.474;2023-06-14T15:16:22;5.00;;;3.83;;
3099;SDS011;1560;52.746;13.474;2023-06-14T15:18:51;5.60;;;3.80;;
3099;SDS011;1560;52.746;13.474;2023-06-14T15:21:20;5.03;;;3.37;;
3099;SDS011;1560;52.746;13.474;2023-06-14T15:26:25;5.50;;;3.50;;
3099;SDS011;1560;52.746;13.474;2023-06-14T15:28:55;6.73;;;3.80;;
3099;SDS011;1560;52.746;13.474;2023-06-14T15:31:24;7.83;;;4.03;;
3099;SDS011;1560;52.746;13.474;2023-06-14T15:33:55;6.50;;;4.07;;
3099;SDS011;1560;52.746;13.474;2023-06-14T15:39:00;6.33;;;4.57;;
3099;SDS011;1560;52.746;13.474;2023-06-14T15:44:06;6.20;;;3.17;;
3099;SDS011;1560;52.746;13.474;2023-06-14T15:46:36;6.80;;;4.03;;
3099;SDS011;1560;52.746;13.474;2023-06-14T15:49:06;5.23;;;4.23;;
3099;SDS011;1560;52.746;13.474;2023-06-14T15:51:45;5.30;;;3.63;;
3099;SDS011;1560;52.746;13.474;2023-06-14T15:54:13;5.57;;;3.70;;
3099;SDS011;1560;52.746;13.474;2023-06-14T15:56:42;6.10;;;4.03;;
3099;SDS011;1560;52.746;13.474;2023-06-14T15:59:11;5.77;;;3.50;;
3099;SDS011;1560;52.746;13.474;2023-06-14T16:04:16;7.17;;;4.30;;
3099;SDS011;1560;52.746;13.474;2023-06-14T16:06:45;5.43;;;4.10;;
3099;SDS011;1560;52.746;13.474;2023-06-14T16:09:14;4.20;;;3.80;;
3099;SDS011;1560;52.746;13.474;2023-06-14T16:14:19;4.57;;;3.70;;
3099;SDS011;1560;52.746;13.474;2023-06-14T16:16:48;4.47;;;3.30;;
3099;SDS011;1560;52.746;13.474;2023-06-14T16:21:53;5.10;;;3.60;;
3099;SDS011;1560;52.746;13.474;2023-06-14T16:24:22;4.40;;;3.97;;
3099;SDS011;1560;52.746;13.474;2023-06-14T16:26:51;5.87;;;3.57;;
3099;SDS011;1560;52.746;13.474;2023-06-14T16:29:28;6.47;;;3.83;;
3099;SDS011;1560;52.746;13.474;2023-06-14T16:31:57;5.07;;;3.97;;
3099;SDS011;1560;52.746;13.474;2023-06-14T16:34:26;7.03;;;3.87;;
3099;SDS011;1560;52.746;13.474;2023-06-14T16:36:56;5.13;;;3.87;;
3099;SDS011;1560;52.746;13.474;2023-06-14T16:39:25;6.90;;;5.57;;
3099;SDS011;1560;52.746;13.474;2023-06-14T16:41:54;6.43;;;4.03;;
3099;SDS011;1560;52.746;13.474;2023-06-14T16:44:23;4.90;;;3.80;;
3099;SDS011;1560;52.746;13.474;2023-06-14T16:46:52;6.43;;;4.37;;
3099;SDS011;1560;52.746;13.474;2023-06-14T16:49:21;4.67;;;3.43;;
3099;SDS011;1560;52.746;13.474;2023-06-14T16:51:50;6.60;;;4.50;;
3099;SDS011;1560;52.746;13.474;2023-06-14T16:54:19;6.90;;;4.07;;
3099;SDS011;1560;52.746;13.474;2023-06-14T16:56:47;5.07;;;4.00;;
3099;SDS011;1560;52.746;13.474;2023-06-14T17:26:23;6.03;;;3.50;;
3099;SDS011;1560;52.746;13.474;2023-06-14T17:32:35;4.67;;;2.93;;
3099;SDS011;1560;52.746;13.474;2023-06-14T17:35:43;4.17;;;2.80;;
3099;SDS011;1560;52.746;13.474;2023-06-14T17:52:39;8.37;;;3.40;;
3099;SDS011;1560;52.746;13.474;2023-06-14T17:55:46;4.27;;;3.33;;
3099;SDS011;1560;52.746;13.474;2023-06-14T18:04:46;6.90;;;3.60;;
3099;SDS011;1560;52.746;13.474;2023-06-14T18:07:38;4.20;;;3.50;;
3099;SDS011;1560;52.746;13.474;2023-06-14T18:13:14;7.00;;;4.33;;
3099;SDS011;1560;52.746;13.474;2023-06-14T18:15:59;4.60;;;3.73;;
3099;SDS011;1560;52.746;13.474;2023-06-14T18:18:28;6.13;;;3.97;;
3099;SDS011;1560;52.746;13.474;2023-06-14T18:20:57;5.53;;;4.03;;
3099;SDS011;1560;52.746;13.474;2023-06-14T18:23:28;7.30;;;4.43;;
3099;SDS011;1560;52.746;13.474;2023-06-14T18:26:13;7.00;;;3.93;;
3099;SDS011;1560;52.746;13.474;2023-06-14T19:07:38;4.07;;;3.50;;
3099;SDS011;1560;52.746;13.474;2023-06-14T19:13:08;4.60;;;3.60;;
3099;SDS011;1560;52.746;13.474;2023-06-14T19:15:37;5.50;;;3.47;;
3099;SDS011;1560;52.746;13.474;2023-06-14T19:18:20;6.13;;;4.33;;
3099;SDS011;1560;52.746;13.474;2023-06-14T19:23:26;6.00;;;3.40;;
3099;SDS011;1560;52.746;13.474;2023-06-14T19:25:55;7.20;;;3.97;;
3099;SDS011;1560;52.746;13.474;2023-06-14T19:28:23;4.03;;;3.63;;
3099;SDS011;1560;52.746;13.474;2023-06-14T19:30:54;7.30;;;3.87;;
3099;SDS011;1560;52.746;13.474;2023-06-14T19:33:23;5.03;;;3.70;;
3099;SDS011;1560;52.746;13.474;2023-06-14T19:35:52;5.63;;;4.03;;
3099;SDS011;1560;52.746;13.474;2023-06-14T19:38:21;5.33;;;3.97;;
3099;SDS011;1560;52.746;13.474;2023-06-14T19:43:47;5.00;;;3.80;;
3099;SDS011;1560;52.746;13.474;2023-06-14T19:46:17;4.30;;;3.70;;
3099;SDS011;1560;52.746;13.474;2023-06-14T19:48:47;4.40;;;3.83;;
3099;SDS011;1560;52.746;13.474;2023-06-14T19:51:16;4.67;;;3.40;;
3099;SDS011;1560;52.746;13.474;2023-06-14T19:53:46;5.93;;;3.57;;